createdAt,value
2023-03-06T00:03:42.089Z,-2.85
2023-03-06T00:08:45.292Z,-2.90
2023-03-06T00:13:48.343Z,-2.98
2023-03-06T00:18:52.134Z,-3.02
2023-03-06T00:23:55.063Z,-3.03
2023-03-06T00:28:58.276Z,-3.06
2023-03-06T00:34:02.279Z,-3.04
2023-03-06T00:39:05.420Z,-3.07
2023-03-06T00:44:08.616Z,-3.10
2023-03-06T00:49:11.725Z,-3.12
2023-03-06T00:54:17.266Z,-3.15
2023-03-06T00:59:48.435Z,-3.15
2023-03-06T01:04:54.392Z,-3.17
2023-03-06T01:09:57.498Z,-3.19
2023-03-06T01:15:00.626Z,-3.19
2023-03-06T01:20:05.470Z,-3.20
2023-03-06T01:25:09.394Z,-3.21
2023-03-06T01:30:13.312Z,-3.24
2023-03-06T01:35:19.796Z,-3.27
2023-03-06T01:40:23.072Z,-3.27
2023-03-06T01:45:26.328Z,-3.29
2023-03-06T01:50:29.628Z,-3.32
2023-03-06T01:55:35.201Z,-3.37
2023-03-06T02:00:38.556Z,-3.39
2023-03-06T02:05:43.917Z,-3.40
2023-03-06T02:11:05.306Z,-3.39
2023-03-06T02:16:10.294Z,-3.39
2023-03-06T02:21:23.128Z,-3.42
2023-03-06T02:26:28.695Z,-3.44
2023-03-06T02:31:33.748Z,-3.48
2023-03-06T02:36:45.792Z,-3.53
2023-03-06T02:41:49.117Z,-3.54
2023-03-06T02:46:52.575Z,-3.56
2023-03-06T02:51:55.700Z,-3.57
2023-03-06T02:56:58.801Z,-3.62
2023-03-06T03:02:02.066Z,-3.68
2023-03-06T03:07:05.304Z,-3.69
2023-03-06T03:12:09.052Z,-3.70
2023-03-06T03:17:12.017Z,-3.73
2023-03-06T03:22:15.306Z,-3.76
2023-03-06T03:27:18.343Z,-3.81
2023-03-06T03:32:21.380Z,-3.85
2023-03-06T03:37:24.756Z,-3.86
2023-03-06T03:42:27.741Z,-3.89
2023-03-06T03:47:31.020Z,-3.92
2023-03-06T03:52:34.099Z,-3.90
2023-03-06T03:57:39.348Z,-3.89
2023-03-06T04:02:44.832Z,-3.88
2023-03-06T04:07:48.118Z,-3.92
2023-03-06T04:13:22.389Z,-3.99
2023-03-06T04:18:26.787Z,-4.02
2023-03-06T04:23:30.643Z,-4.04
2023-03-06T04:28:33.751Z,-4.08
2023-03-06T04:33:36.707Z,-4.07
2023-03-06T04:38:40.095Z,-4.09
2023-03-06T04:43:43.222Z,-4.11
2023-03-06T04:48:46.292Z,-4.14
2023-03-06T04:53:49.339Z,-4.16
2023-03-06T04:58:54.794Z,-4.18
2023-03-06T05:03:57.901Z,-4.20
2023-03-06T05:09:14.014Z,-4.22
2023-03-06T05:14:17.324Z,-4.25
2023-03-06T05:19:20.551Z,-4.26
2023-03-06T05:24:23.740Z,-4.24
2023-03-06T05:29:27.018Z,-4.19
2023-03-06T05:34:33.375Z,-4.05
2023-03-06T05:39:36.565Z,-3.80
2023-03-06T05:44:39.847Z,-3.54
2023-03-06T05:49:43.109Z,-3.28
2023-03-06T05:54:52.200Z,-3.02
2023-03-06T05:59:55.498Z,-2.74
2023-03-06T06:04:58.785Z,-2.47
2023-03-06T06:10:03.835Z,-2.27
2023-03-06T06:15:08.099Z,-2.13
2023-03-06T06:20:12.464Z,-2.08
2023-03-06T06:25:16.314Z,-1.91
2023-03-06T06:30:19.789Z,-1.64
2023-03-06T06:35:26.732Z,-1.27
2023-03-06T06:40:30.197Z,-0.82
2023-03-06T06:45:33.281Z,-0.58
2023-03-06T06:50:38.706Z,-0.49
2023-03-06T06:55:43.152Z,-0.49
2023-03-06T07:00:46.308Z,-0.29
2023-03-06T07:05:56.405Z,-0.06
2023-03-06T07:11:04.599Z,0.09
2023-03-06T07:16:08.305Z,0.18
2023-03-06T07:21:12.383Z,0.45
2023-03-06T07:26:15.467Z,0.83
2023-03-06T07:31:23.196Z,0.95
2023-03-06T07:36:26.623Z,0.98
2023-03-06T07:41:32.131Z,1.22
2023-03-06T07:46:35.837Z,1.51
2023-03-06T07:51:49.216Z,1.69
2023-03-06T07:56:53.356Z,1.85
2023-03-06T08:02:01.803Z,1.80
2023-03-06T08:07:07.677Z,2.09
2023-03-06T08:12:15.144Z,2.33
2023-03-06T08:17:18.893Z,2.60
2023-03-06T08:22:21.972Z,2.72
2023-03-06T08:27:30.552Z,2.76
2023-03-06T08:32:38.083Z,2.80
2023-03-06T08:37:41.568Z,2.88
2023-03-06T08:42:47.469Z,3.11
2023-03-06T08:47:50.513Z,3.34
2023-03-06T08:52:53.724Z,3.48
2023-03-06T08:57:57.535Z,3.63
2023-03-06T09:03:00.968Z,3.81
2023-03-06T09:08:03.897Z,4.00
2023-03-06T09:13:07.216Z,4.13
2023-03-06T09:18:10.399Z,4.32
2023-03-06T09:23:13.902Z,4.61
2023-03-06T09:28:18.026Z,5.01
2023-03-06T09:33:22.094Z,5.30
2023-03-06T09:38:28.211Z,5.51
2023-03-06T09:43:51.752Z,5.60
2023-03-06T09:49:23.250Z,5.63
2023-03-06T09:54:47.805Z,5.98
2023-03-06T09:59:59.132Z,6.13
2023-03-06T10:05:15.170Z,6.05
2023-03-06T10:10:27.132Z,6.19
2023-03-06T10:15:39.532Z,6.44
2023-03-06T10:21:19.593Z,6.46
2023-03-06T10:26:34.462Z,6.75
2023-03-06T10:31:44.674Z,6.63
2023-03-06T10:36:48.599Z,6.49
2023-03-06T10:41:51.841Z,6.64
2023-03-06T10:46:56.445Z,6.94
2023-03-06T10:52:21.945Z,7.06
2023-03-06T10:57:32.795Z,7.33
2023-03-06T11:02:41.209Z,7.49
2023-03-06T11:07:57.673Z,7.50
2023-03-06T11:13:19.415Z,7.25
2023-03-06T11:18:40.076Z,6.92
2023-03-06T11:23:47.682Z,6.72
2023-03-06T11:29:29.398Z,6.71
2023-03-06T11:34:44.924Z,6.78
2023-03-06T11:40:06.548Z,6.91
2023-03-06T11:45:44.048Z,6.61
2023-03-06T11:50:52.690Z,6.40
2023-03-06T11:56:29.462Z,6.06
2023-03-06T12:01:37.628Z,5.81
2023-03-06T12:06:41.058Z,5.68
2023-03-06T12:11:59.318Z,5.50
2023-03-06T12:17:08.219Z,5.33
2023-03-06T12:22:57.520Z,5.35
2023-03-06T12:28:11.549Z,5.53
2023-03-06T12:34:07.782Z,5.53
2023-03-06T12:39:54.604Z,4.93
2023-03-06T12:45:33.208Z,4.94
2023-03-06T12:50:38.298Z,4.89
2023-03-06T12:55:49.210Z,4.81
2023-03-06T13:01:20.205Z,5.01
2023-03-06T13:07:03.865Z,4.84
2023-03-06T13:12:16.032Z,4.84
2023-03-06T13:17:39.230Z,4.96
2023-03-06T13:22:46.294Z,4.88
2023-03-06T13:27:52.273Z,4.92
2023-03-06T13:32:56.574Z,4.88
2023-03-06T13:38:00.913Z,4.97
2023-03-06T13:43:09.072Z,4.90
2023-03-06T13:48:45.805Z,5.03
2023-03-06T13:54:17.226Z,5.29
2023-03-06T14:00:09.528Z,5.36
2023-03-06T14:05:17.010Z,5.17
2023-03-06T14:10:26.211Z,4.94
2023-03-06T14:15:45.479Z,4.54
2023-03-06T14:21:04.777Z,4.12
2023-03-06T14:26:24.615Z,4.03
2023-03-06T14:31:41.304Z,3.86
2023-03-06T14:36:51.401Z,3.69
2023-03-06T14:42:25.915Z,3.50
2023-03-06T14:47:42.883Z,3.53
2023-03-06T14:52:47.088Z,3.70
2023-03-06T14:57:58.518Z,3.73
2023-03-06T15:03:06.795Z,3.57
2023-03-06T15:08:10.349Z,3.47
2023-03-06T15:13:26.610Z,3.24
2023-03-06T15:18:39.089Z,3.00
2023-03-06T15:23:48.541Z,2.86
2023-03-06T15:29:23.504Z,2.63
2023-03-06T15:34:41.933Z,2.41
2023-03-06T15:39:48.924Z,2.22
2023-03-06T15:45:00.528Z,2.04
2023-03-06T15:50:04.376Z,1.84
2023-03-06T15:55:20.220Z,1.72
2023-03-06T16:00:30.932Z,1.56
2023-03-06T16:05:34.155Z,1.42
2023-03-06T16:10:46.709Z,1.29
2023-03-06T16:15:54.534Z,1.21
2023-03-06T16:20:57.701Z,1.16
2023-03-06T16:26:01.517Z,1.13
2023-03-06T16:31:07.569Z,1.06
2023-03-06T16:36:27.826Z,1.00
2023-03-06T16:41:31.463Z,0.94
2023-03-06T16:46:42.932Z,0.75
2023-03-06T16:51:56.104Z,0.53
2023-03-06T16:57:00.676Z,0.34
2023-03-06T17:02:03.933Z,0.19
2023-03-06T17:07:07.214Z,0.08
2023-03-06T17:12:10.381Z,0.01
2023-03-06T17:17:13.479Z,-0.07
2023-03-06T17:22:19.036Z,-0.13
2023-03-06T17:27:23.058Z,-0.17
2023-03-06T17:32:27.327Z,-0.22
2023-03-06T17:37:32.235Z,-0.24
2023-03-06T17:42:59.249Z,-0.24
2023-03-06T17:48:03.624Z,-0.20
2023-03-06T17:53:07.086Z,-0.21
2023-03-06T17:58:12.318Z,-0.20
2023-03-06T18:03:22.481Z,-0.25
2023-03-06T18:08:38.585Z,-0.22
2023-03-06T18:13:46.851Z,-0.23
2023-03-06T18:18:58.492Z,-0.31
2023-03-06T18:24:01.452Z,-0.30
2023-03-06T18:29:05.143Z,-0.29
2023-03-06T18:34:13.481Z,-0.36
2023-03-06T18:39:16.688Z,-0.38
2023-03-06T18:44:23.880Z,-0.40
2023-03-06T18:49:35.293Z,-0.33
2023-03-06T18:54:39.014Z,-0.25
2023-03-06T18:59:43.468Z,-0.23
2023-03-06T19:04:48.099Z,-0.26
2023-03-06T19:09:56.088Z,-0.36
2023-03-06T19:14:59.104Z,-0.49
2023-03-06T19:20:05.003Z,-0.61
2023-03-06T19:25:10.125Z,-0.75
2023-03-06T19:30:15.717Z,-0.87
2023-03-06T19:35:21.952Z,-0.93
2023-03-06T19:40:25.614Z,-0.96
2023-03-06T19:45:31.064Z,-0.95
2023-03-06T19:50:34.697Z,-1.00
2023-03-06T19:55:38.587Z,-1.10
2023-03-06T20:00:42.064Z,-1.19
2023-03-06T20:05:48.121Z,-1.21
2023-03-06T20:10:51.048Z,-1.17
2023-03-06T20:15:55.160Z,-1.09
2023-03-06T20:21:03.869Z,-1.05
2023-03-06T20:26:11.932Z,-1.08
2023-03-06T20:31:19.177Z,-1.04
2023-03-06T20:36:31.342Z,-1.01
2023-03-06T20:41:35.532Z,-1.03
2023-03-06T20:46:39.987Z,-1.12
2023-03-06T20:51:43.994Z,-1.17
2023-03-06T20:56:49.164Z,-1.33
2023-03-06T21:01:53.330Z,-1.47
2023-03-06T21:06:56.448Z,-1.57
2023-03-06T21:12:00.265Z,-1.66
2023-03-06T21:17:03.406Z,-1.86
2023-03-06T21:22:06.503Z,-2.02
2023-03-06T21:27:09.620Z,-1.94
2023-03-06T21:32:12.616Z,-1.92
2023-03-06T21:37:15.694Z,-2.05
2023-03-06T21:42:18.640Z,-2.05
2023-03-06T21:47:21.542Z,-2.02
2023-03-06T21:52:26.465Z,-2.03
2023-03-06T21:57:29.630Z,-2.09
2023-03-06T22:02:32.499Z,-2.17
2023-03-06T22:07:39.367Z,-2.24
2023-03-06T22:12:42.330Z,-2.26
2023-03-06T22:17:45.541Z,-2.30
2023-03-06T22:22:48.452Z,-2.33
2023-03-06T22:27:51.451Z,-2.36
2023-03-06T22:32:54.615Z,-2.39
2023-03-06T22:37:58.781Z,-2.42
2023-03-06T22:43:01.803Z,-2.52
2023-03-06T22:48:11.063Z,-2.60
2023-03-06T22:53:14.246Z,-2.68
2023-03-06T22:58:17.142Z,-2.70
2023-03-06T23:03:20.004Z,-2.73
2023-03-06T23:08:23.044Z,-2.68
2023-03-06T23:13:26.082Z,-2.68
2023-03-06T23:18:29.887Z,-2.77
2023-03-06T23:23:32.779Z,-2.86
2023-03-06T23:28:36.002Z,-2.90
2023-03-06T23:33:39.200Z,-2.93
2023-03-06T23:38:42.789Z,-2.93
2023-03-06T23:43:47.891Z,-2.90
2023-03-06T23:48:50.792Z,-2.89
2023-03-06T23:53:58.305Z,-2.94
2023-03-06T23:59:01.452Z,-3.02
